DAAJ

Djanet Inedbirene Airport

Djanet, Algeria
METAR DAAJ 201500Z 23004KT CAVOK 23/01 Q1010
Observed Flight Rules
Feb-20 @ 15:00 UTC (2 hours ago) Visual Flight Rules
Wind Visibility Clouds
230° at 4 knots 10,000+ meters
  • Clear skies
Temperatures Readings
Current 23°C / 73°F
Dewpoint 1°C / 34°F
Humidity 23%
Altimeter 29.82" Hg
Pressure 1010 hPa
Elevation 968
METAR DAAJ 201500Z 23004KT CAVOK 23/01 Q1010
Observed Flight Rules
Feb-20 @ 15:00 UTC
(2 hours ago)
VFR
Wind Visibility
230° at 4 knots 10,000+ meters
Clouds
  • Clear skies
Temperature Dewpoint
23°C / 73°F 1°C / 34°F
Humidity Altimeter Pressure
23% 29.82" Hg 1010 hPa